This is the latest recevied weather packets stored in our database for station/object N0HOT. If no packets are shown the sender has not sent any weather packets the latest 10 day(s).
| Time | Temp. | Humidity | Pressure | Rain* | Wind** | Luminosity | Snow |
|---|---|---|---|---|---|---|---|
| 1777755993 | 18.89° C | 20% | 1013.9 hPa | 0 mm | - | 527 W/m² | - |
| 1777755690 | 18.89° C | 19% | 1013.9 hPa | 0 mm | - | 518 W/m² | - |
| 1777754478 | 18.89° C | 21% | 1014.6 hPa | 0 mm | - | 674 W/m² | - |
| 1777754175 | 18.89° C | 21% | 1014.3 hPa | 0 mm | - | 681 W/m² | - |
| 1777753872 | 18.89° C | 21% | 1014.6 hPa | 0 mm | - | 651 W/m² | - |
| 1777753567 | 18.89° C | 20% | 1014.6 hPa | 0 mm | - | 662 W/m² | - |
| 1777753265 | 18.89° C | 23% | 1015 hPa | 0 mm | - | 650 W/m² | - |
| 1777752956 | 18.89° C | 19% | 1015 hPa | 0 mm | - | 632 W/m² | - |
| 1777752653 | 18.89° C | 20% | 1015 hPa | 0 mm | - | 717 W/m² | - |
| 1777752348 | 18.89° C | 19% | 1015 hPa | 0 mm | - | 755 W/m² | - |
| 1777752047 | 18.33° C | 20% | 1015 hPa | 0 mm | - | 721 W/m² | - |
| 1777751744 | 18.33° C | 20% | 1015.3 hPa | 0 mm | - | 766 W/m² | - |
| 1777751440 | 18.33° C | 24% | 1015.3 hPa | 0 mm | - | 741 W/m² | - |
| 1777750530 | 18.33° C | 21% | 1015.3 hPa | 0 mm | - | 783 W/m² | - |
| 1777750227 | 18.33° C | 20% | 1015.6 hPa | 0 mm | - | 796 W/m² | - |
| 1777749922 | 18.33° C | 19% | 1015.6 hPa | 0 mm | - | 796 W/m² | - |
| 1777749620 | 18.33° C | 20% | 1015.6 hPa | 0 mm | - | 832 W/m² | - |
| 1777749317 | 18.33° C | 22% | 1015.6 hPa | 0 mm | - | 815 W/m² | - |
| 1777749015 | 18.33° C | 20% | 1016 hPa | 0 mm | - | 866 W/m² | - |
| 1777748712 | 18.33° C | 21% | 1016 hPa | 0 mm | - | 868 W/m² | - |
| 1777747801 | 17.78° C | 22% | 1016.3 hPa | 0 mm | - | 884 W/m² | - |
| 1777746889 | 17.22° C | 23% | 1016.3 hPa | 0 mm | - | 867 W/m² | - |
| 1777746586 | 17.22° C | 23% | 1016.7 hPa | 0 mm | - | 888 W/m² | - |
| 1777746280 | 17.22° C | 25% | 1017 hPa | 0 mm | - | 911 W/m² | - |
| 1777745976 | 17.22° C | 24% | 1016.7 hPa | 0 mm | - | 895 W/m² | - |
* Rain latest hour (hover to see other rain measurements)
** Current wind speed in m/s (hover to see current wind gust speed)